sensor_id;sensor_type;location;lat;lon;timestamp;P1;durP1;ratioP1;P2;durP2;ratioP2
17504;SDS011;8870;50.950;11.762;2023-02-28T00:01:13;3.92;;;2.63;;
17504;SDS011;8870;50.950;11.762;2023-02-28T00:06:48;3.90;;;2.95;;
17504;SDS011;8870;50.950;11.762;2023-02-28T00:12:06;4.70;;;2.70;;
17504;SDS011;8870;50.950;11.762;2023-02-28T00:17:37;3.17;;;2.70;;
17504;SDS011;8870;50.950;11.762;2023-02-28T00:22:58;4.63;;;2.70;;
17504;SDS011;8870;50.950;11.762;2023-02-28T00:28:29;3.22;;;2.60;;
17504;SDS011;8870;50.950;11.762;2023-02-28T00:33:47;2.90;;;2.60;;
17504;SDS011;8870;50.950;11.762;2023-02-28T00:39:22;3.63;;;3.05;;
17504;SDS011;8870;50.950;11.762;2023-02-28T00:44:40;5.57;;;2.90;;
17504;SDS011;8870;50.950;11.762;2023-02-28T00:50:12;3.10;;;2.60;;
17504;SDS011;8870;50.950;11.762;2023-02-28T00:55:33;4.90;;;2.70;;
17504;SDS011;8870;50.950;11.762;2023-02-28T01:01:04;5.00;;;2.95;;
17504;SDS011;8870;50.950;11.762;2023-02-28T01:06:22;4.93;;;2.85;;
17504;SDS011;8870;50.950;11.762;2023-02-28T01:11:56;3.78;;;2.78;;
17504;SDS011;8870;50.950;11.762;2023-02-28T01:17:14;3.28;;;2.97;;
17504;SDS011;8870;50.950;11.762;2023-02-28T01:22:45;4.00;;;2.97;;
17504;SDS011;8870;50.950;11.762;2023-02-28T01:28:20;2.60;;;2.40;;
17504;SDS011;8870;50.950;11.762;2023-02-28T01:33:39;2.70;;;2.10;;
17504;SDS011;8870;50.950;11.762;2023-02-28T01:39:10;3.47;;;2.30;;
17504;SDS011;8870;50.950;11.762;2023-02-28T01:50:34;2.40;;;2.20;;
17504;SDS011;8870;50.950;11.762;2023-02-28T01:55:56;3.35;;;2.17;;
17504;SDS011;8870;50.950;11.762;2023-02-28T02:01:32;2.50;;;2.20;;
17504;SDS011;8870;50.950;11.762;2023-02-28T02:06:53;3.70;;;2.47;;
17504;SDS011;8870;50.950;11.762;2023-02-28T02:12:27;3.15;;;2.40;;
17504;SDS011;8870;50.950;11.762;2023-02-28T02:18:05;2.65;;;1.98;;
17504;SDS011;8870;50.950;11.762;2023-02-28T02:23:49;3.58;;;2.03;;
17504;SDS011;8870;50.950;11.762;2023-02-28T02:29:32;4.00;;;2.30;;
17504;SDS011;8870;50.950;11.762;2023-02-28T02:35:37;3.13;;;2.20;;
17504;SDS011;8870;50.950;11.762;2023-02-28T02:41:05;3.33;;;2.42;;
17504;SDS011;8870;50.950;11.762;2023-02-28T02:46:45;3.40;;;2.15;;
17504;SDS011;8870;50.950;11.762;2023-02-28T02:52:11;2.55;;;1.90;;
17504;SDS011;8870;50.950;11.762;2023-02-28T02:57:48;3.63;;;2.15;;
17504;SDS011;8870;50.950;11.762;2023-02-28T03:03:10;2.80;;;2.17;;
17504;SDS011;8870;50.950;11.762;2023-02-28T03:08:53;4.18;;;2.17;;
17504;SDS011;8870;50.950;11.762;2023-02-28T03:14:20;3.58;;;2.13;;
17504;SDS011;8870;50.950;11.762;2023-02-28T03:20:04;2.47;;;1.90;;
17504;SDS011;8870;50.950;11.762;2023-02-28T03:25:48;3.85;;;2.20;;
17504;SDS011;8870;50.950;11.762;2023-02-28T03:31:27;3.58;;;2.00;;
17504;SDS011;8870;50.950;11.762;2023-02-28T03:36:48;2.75;;;2.25;;
17504;SDS011;8870;50.950;11.762;2023-02-28T03:42:26;3.53;;;2.00;;
17504;SDS011;8870;50.950;11.762;2023-02-28T03:47:49;2.95;;;2.30;;
17504;SDS011;8870;50.950;11.762;2023-02-28T03:53:25;2.95;;;1.90;;
17504;SDS011;8870;50.950;11.762;2023-02-28T03:58:51;2.35;;;2.00;;
17504;SDS011;8870;50.950;11.762;2023-02-28T04:04:27;3.53;;;2.00;;
17504;SDS011;8870;50.950;11.762;2023-02-28T04:09:46;3.55;;;1.80;;
17504;SDS011;8870;50.950;11.762;2023-02-28T04:15:22;2.78;;;2.00;;
17504;SDS011;8870;50.950;11.762;2023-02-28T04:20:42;2.30;;;1.90;;
17504;SDS011;8870;50.950;11.762;2023-02-28T04:26:12;3.38;;;2.17;;
17504;SDS011;8870;50.950;11.762;2023-02-28T04:31:33;4.35;;;2.13;;
17504;SDS011;8870;50.950;11.762;2023-02-28T04:37:05;3.17;;;2.28;;
17504;SDS011;8870;50.950;11.762;2023-02-28T04:42:24;4.50;;;2.30;;
17504;SDS011;8870;50.950;11.762;2023-02-28T04:48:00;3.30;;;2.30;;
17504;SDS011;8870;50.950;11.762;2023-02-28T04:53:19;3.13;;;2.35;;
17504;SDS011;8870;50.950;11.762;2023-02-28T04:58:50;3.55;;;2.55;;
17504;SDS011;8870;50.950;11.762;2023-02-28T05:04:11;4.20;;;2.60;;
17504;SDS011;8870;50.950;11.762;2023-02-28T05:09:42;4.35;;;2.72;;
17504;SDS011;8870;50.950;11.762;2023-02-28T05:15:01;3.42;;;2.40;;
17504;SDS011;8870;50.950;11.762;2023-02-28T05:20:35;4.00;;;2.70;;
17504;SDS011;8870;50.950;11.762;2023-02-28T05:25:54;3.35;;;2.65;;
17504;SDS011;8870;50.950;11.762;2023-02-28T05:31:24;4.72;;;2.70;;
17504;SDS011;8870;50.950;11.762;2023-02-28T05:36:45;2.90;;;2.60;;
17504;SDS011;8870;50.950;11.762;2023-02-28T05:42:16;4.05;;;2.70;;
17504;SDS011;8870;50.950;11.762;2023-02-28T05:47:35;4.20;;;2.80;;
17504;SDS011;8870;50.950;11.762;2023-02-28T05:53:09;4.32;;;2.72;;
17504;SDS011;8870;50.950;11.762;2023-02-28T05:58:28;4.85;;;2.67;;
17504;SDS011;8870;50.950;11.762;2023-02-28T06:09:17;3.67;;;3.10;;
17504;SDS011;8870;50.950;11.762;2023-02-28T06:14:49;4.25;;;2.80;;
17504;SDS011;8870;50.950;11.762;2023-02-28T06:20:08;3.75;;;2.95;;
17504;SDS011;8870;50.950;11.762;2023-02-28T06:25:46;5.30;;;3.10;;
17504;SDS011;8870;50.950;11.762;2023-02-28T06:31:06;4.80;;;3.30;;
17504;SDS011;8870;50.950;11.762;2023-02-28T06:36:37;3.95;;;3.20;;
17504;SDS011;8870;50.950;11.762;2023-02-28T06:42:00;3.80;;;3.40;;
17504;SDS011;8870;50.950;11.762;2023-02-28T06:47:33;4.18;;;3.47;;
17504;SDS011;8870;50.950;11.762;2023-02-28T06:52:52;4.88;;;3.70;;
17504;SDS011;8870;50.950;11.762;2023-02-28T06:58:25;6.43;;;3.20;;
17504;SDS011;8870;50.950;11.762;2023-02-28T07:03:44;5.93;;;3.50;;
17504;SDS011;8870;50.950;11.762;2023-02-28T07:09:16;4.88;;;3.30;;
17504;SDS011;8870;50.950;11.762;2023-02-28T07:14:38;5.68;;;3.30;;
17504;SDS011;8870;50.950;11.762;2023-02-28T07:20:10;4.35;;;3.42;;
17504;SDS011;8870;50.950;11.762;2023-02-28T07:25:36;5.72;;;3.70;;
17504;SDS011;8870;50.950;11.762;2023-02-28T07:31:10;4.50;;;3.00;;
17504;SDS011;8870;50.950;11.762;2023-02-28T07:36:29;5.97;;;3.20;;
17504;SDS011;8870;50.950;11.762;2023-02-28T07:42:03;5.40;;;3.70;;
17504;SDS011;8870;50.950;11.762;2023-02-28T07:52:59;4.63;;;3.67;;
17504;SDS011;8870;50.950;11.762;2023-02-28T07:58:23;6.47;;;3.60;;
17504;SDS011;8870;50.950;11.762;2023-02-28T08:03:57;4.15;;;3.28;;
17504;SDS011;8870;50.950;11.762;2023-02-28T08:09:16;5.22;;;3.58;;
17504;SDS011;8870;50.950;11.762;2023-02-28T08:14:46;4.50;;;3.50;;
17504;SDS011;8870;50.950;11.762;2023-02-28T08:20:09;6.70;;;3.40;;
17504;SDS011;8870;50.950;11.762;2023-02-28T08:25:41;5.45;;;3.20;;
17504;SDS011;8870;50.950;11.762;2023-02-28T08:31:14;4.38;;;3.03;;
17504;SDS011;8870;50.950;11.762;2023-02-28T08:36:47;3.60;;;2.75;;
17504;SDS011;8870;50.950;11.762;2023-02-28T08:42:19;4.05;;;3.10;;
17504;SDS011;8870;50.950;11.762;2023-02-28T08:47:37;5.13;;;3.00;;
17504;SDS011;8870;50.950;11.762;2023-02-28T08:53:10;3.60;;;2.78;;
17504;SDS011;8870;50.950;11.762;2023-02-28T08:58:29;4.78;;;2.90;;
17504;SDS011;8870;50.950;11.762;2023-02-28T09:04:00;3.22;;;2.30;;
17504;SDS011;8870;50.950;11.762;2023-02-28T09:09:21;3.33;;;2.42;;
17504;SDS011;8870;50.950;11.762;2023-02-28T09:14:53;2.42;;;2.15;;
17504;SDS011;8870;50.950;11.762;2023-02-28T09:20:11;4.05;;;2.10;;
17504;SDS011;8870;50.950;11.762;2023-02-28T09:25:49;3.05;;;2.10;;
17504;SDS011;8870;50.950;11.762;2023-02-28T09:31:13;2.38;;;2.05;;
17504;SDS011;8870;50.950;11.762;2023-02-28T09:36:45;3.33;;;2.22;;
17504;SDS011;8870;50.950;11.762;2023-02-28T09:42:11;2.58;;;1.92;;
17504;SDS011;8870;50.950;11.762;2023-02-28T09:47:52;3.90;;;2.00;;
17504;SDS011;8870;50.950;11.762;2023-02-28T09:53:15;3.63;;;2.30;;
17504;SDS011;8870;50.950;11.762;2023-02-28T09:59:04;3.35;;;2.20;;
17504;SDS011;8870;50.950;11.762;2023-02-28T10:04:36;3.22;;;2.22;;
17504;SDS011;8870;50.950;11.762;2023-02-28T10:10:20;4.15;;;2.17;;
17504;SDS011;8870;50.950;11.762;2023-02-28T10:15:44;2.95;;;2.20;;
17504;SDS011;8870;50.950;11.762;2023-02-28T10:21:19;3.60;;;2.20;;
17504;SDS011;8870;50.950;11.762;2023-02-28T10:26:42;3.03;;;2.30;;
17504;SDS011;8870;50.950;11.762;2023-02-28T10:32:20;3.28;;;2.30;;
17504;SDS011;8870;50.950;11.762;2023-02-28T10:37:44;3.25;;;2.05;;
17504;SDS011;8870;50.950;11.762;2023-02-28T10:43:19;2.40;;;2.00;;
17504;SDS011;8870;50.950;11.762;2023-02-28T10:48:42;4.18;;;2.08;;
17504;SDS011;8870;50.950;11.762;2023-02-28T10:54:16;3.03;;;2.20;;
17504;SDS011;8870;50.950;11.762;2023-02-28T10:59:38;4.07;;;2.50;;
17504;SDS011;8870;50.950;11.762;2023-02-28T11:05:27;3.15;;;2.33;;
17504;SDS011;8870;50.950;11.762;2023-02-28T11:10:48;3.70;;;2.30;;
17504;SDS011;8870;50.950;11.762;2023-02-28T11:16:31;2.17;;;1.98;;
17504;SDS011;8870;50.950;11.762;2023-02-28T11:21:55;2.20;;;1.95;;
17504;SDS011;8870;50.950;11.762;2023-02-28T11:39:07;3.03;;;2.40;;
17504;SDS011;8870;50.950;11.762;2023-02-28T11:44:32;3.17;;;2.30;;
17504;SDS011;8870;50.950;11.762;2023-02-28T11:50:20;3.60;;;2.97;;
17504;SDS011;8870;50.950;11.762;2023-02-28T11:55:51;3.75;;;2.30;;
17504;SDS011;8870;50.950;11.762;2023-02-28T12:01:36;4.30;;;2.63;;
17504;SDS011;8870;50.950;11.762;2023-02-28T12:07:03;3.35;;;2.60;;
17504;SDS011;8870;50.950;11.762;2023-02-28T12:12:47;3.75;;;2.50;;
17504;SDS011;8870;50.950;11.762;2023-02-28T12:18:18;4.13;;;2.67;;
17504;SDS011;8870;50.950;11.762;2023-02-28T12:24:11;3.40;;;2.63;;
17504;SDS011;8870;50.950;11.762;2023-02-28T12:29:58;3.10;;;2.80;;
17504;SDS011;8870;50.950;11.762;2023-02-28T12:35:23;4.38;;;2.78;;
17504;SDS011;8870;50.950;11.762;2023-02-28T12:40:59;4.65;;;2.70;;
17504;SDS011;8870;50.950;11.762;2023-02-28T12:46:25;3.53;;;2.60;;
17504;SDS011;8870;50.950;11.762;2023-02-28T12:52:01;2.83;;;2.45;;
17504;SDS011;8870;50.950;11.762;2023-02-28T12:57:27;3.55;;;2.67;;
17504;SDS011;8870;50.950;11.762;2023-02-28T13:03:24;3.53;;;2.80;;
17504;SDS011;8870;50.950;11.762;2023-02-28T13:09:09;3.45;;;2.72;;
17504;SDS011;8870;50.950;11.762;2023-02-28T13:14:43;4.30;;;2.80;;
17504;SDS011;8870;50.950;11.762;2023-02-28T13:20:03;3.17;;;2.60;;
17504;SDS011;8870;50.950;11.762;2023-02-28T13:25:51;4.03;;;2.83;;
17504;SDS011;8870;50.950;11.762;2023-02-28T13:31:14;3.05;;;2.50;;
17504;SDS011;8870;50.950;11.762;2023-02-28T13:36:48;4.45;;;2.70;;
17504;SDS011;8870;50.950;11.762;2023-02-28T13:42:22;4.28;;;3.05;;
17504;SDS011;8870;50.950;11.762;2023-02-28T13:48:02;3.25;;;2.80;;
17504;SDS011;8870;50.950;11.762;2023-02-28T13:53:30;3.10;;;2.80;;
17504;SDS011;8870;50.950;11.762;2023-02-28T13:59:18;3.25;;;2.80;;
17504;SDS011;8870;50.950;11.762;2023-02-28T14:04:49;3.70;;;2.85;;
17504;SDS011;8870;50.950;11.762;2023-02-28T14:11:02;3.55;;;2.80;;
17504;SDS011;8870;50.950;11.762;2023-02-28T14:16:22;3.38;;;2.80;;
17504;SDS011;8870;50.950;11.762;2023-02-28T14:22:00;3.72;;;2.83;;
17504;SDS011;8870;50.950;11.762;2023-02-28T14:27:47;4.70;;;2.60;;
17504;SDS011;8870;50.950;11.762;2023-02-28T14:33:18;2.78;;;2.35;;
17504;SDS011;8870;50.950;11.762;2023-02-28T14:38:55;4.30;;;2.83;;
17504;SDS011;8870;50.950;11.762;2023-02-28T14:44:19;5.05;;;2.75;;
17504;SDS011;8870;50.950;11.762;2023-02-28T14:49:52;4.60;;;2.90;;
17504;SDS011;8870;50.950;11.762;2023-02-28T14:55:12;3.30;;;2.40;;
17504;SDS011;8870;50.950;11.762;2023-02-28T15:00:49;5.00;;;2.55;;
17504;SDS011;8870;50.950;11.762;2023-02-28T15:06:16;3.38;;;2.60;;
17504;SDS011;8870;50.950;11.762;2023-02-28T15:11:48;3.55;;;2.60;;
17504;SDS011;8870;50.950;11.762;2023-02-28T15:17:11;3.92;;;2.90;;
17504;SDS011;8870;50.950;11.762;2023-02-28T15:22:54;3.90;;;2.97;;
17504;SDS011;8870;50.950;11.762;2023-02-28T15:28:27;3.05;;;2.58;;
17504;SDS011;8870;50.950;11.762;2023-02-28T15:33:55;5.13;;;3.05;;
17504;SDS011;8870;50.950;11.762;2023-02-28T15:39:29;3.55;;;2.90;;
17504;SDS011;8870;50.950;11.762;2023-02-28T15:44:47;4.75;;;3.20;;
17504;SDS011;8870;50.950;11.762;2023-02-28T15:50:21;5.47;;;3.55;;
17504;SDS011;8870;50.950;11.762;2023-02-28T15:55:40;5.20;;;3.42;;
17504;SDS011;8870;50.950;11.762;2023-02-28T16:01:19;5.00;;;3.40;;
17504;SDS011;8870;50.950;11.762;2023-02-28T16:06:44;4.57;;;3.50;;
17504;SDS011;8870;50.950;11.762;2023-02-28T16:12:17;4.88;;;3.40;;
17504;SDS011;8870;50.950;11.762;2023-02-28T16:17:35;4.68;;;3.55;;
17504;SDS011;8870;50.950;11.762;2023-02-28T16:23:12;4.68;;;3.55;;
17504;SDS011;8870;50.950;11.762;2023-02-28T16:28:31;5.20;;;3.53;;
17504;SDS011;8870;50.950;11.762;2023-02-28T16:34:06;3.80;;;3.20;;
17504;SDS011;8870;50.950;11.762;2023-02-28T16:39:26;4.35;;;3.40;;
17504;SDS011;8870;50.950;11.762;2023-02-28T16:45:00;6.32;;;3.83;;
17504;SDS011;8870;50.950;11.762;2023-02-28T16:50:18;7.25;;;4.07;;
17504;SDS011;8870;50.950;11.762;2023-02-28T16:55:53;5.20;;;3.85;;
17504;SDS011;8870;50.950;11.762;2023-02-28T17:01:13;4.60;;;4.10;;
17504;SDS011;8870;50.950;11.762;2023-02-28T17:06:45;5.50;;;4.07;;
17504;SDS011;8870;50.950;11.762;2023-02-28T17:12:07;5.43;;;4.40;;
17504;SDS011;8870;50.950;11.762;2023-02-28T17:17:39;5.57;;;4.60;;
17504;SDS011;8870;50.950;11.762;2023-02-28T17:23:05;5.85;;;4.55;;
17504;SDS011;8870;50.950;11.762;2023-02-28T17:28:39;6.63;;;4.47;;
17504;SDS011;8870;50.950;11.762;2023-02-28T17:33:59;5.07;;;4.43;;
17504;SDS011;8870;50.950;11.762;2023-02-28T17:39:30;5.63;;;4.68;;
17504;SDS011;8870;50.950;11.762;2023-02-28T17:44:50;5.78;;;4.75;;
17504;SDS011;8870;50.950;11.762;2023-02-28T17:50:22;6.05;;;5.10;;
17504;SDS011;8870;50.950;11.762;2023-02-28T17:55:40;7.60;;;5.18;;
17504;SDS011;8870;50.950;11.762;2023-02-28T18:01:13;6.45;;;5.53;;
17504;SDS011;8870;50.950;11.762;2023-02-28T18:06:34;6.78;;;4.97;;
17504;SDS011;8870;50.950;11.762;2023-02-28T18:12:11;6.13;;;5.38;;
17504;SDS011;8870;50.950;11.762;2023-02-28T18:17:31;8.93;;;5.57;;
17504;SDS011;8870;50.950;11.762;2023-02-28T18:23:07;6.72;;;5.90;;
17504;SDS011;8870;50.950;11.762;2023-02-28T18:28:39;6.90;;;5.47;;
17504;SDS011;8870;50.950;11.762;2023-02-28T18:34:00;6.43;;;5.75;;
17504;SDS011;8870;50.950;11.762;2023-02-28T18:39:36;8.60;;;6.60;;
17504;SDS011;8870;50.950;11.762;2023-02-28T18:44:54;7.75;;;6.95;;
17504;SDS011;8870;50.950;11.762;2023-02-28T18:50:27;7.93;;;6.80;;
17504;SDS011;8870;50.950;11.762;2023-02-28T18:55:46;9.23;;;6.50;;
17504;SDS011;8870;50.950;11.762;2023-02-28T19:01:17;8.93;;;6.88;;
17504;SDS011;8870;50.950;11.762;2023-02-28T19:06:40;7.70;;;6.90;;
17504;SDS011;8870;50.950;11.762;2023-02-28T19:12:12;8.55;;;7.18;;
17504;SDS011;8870;50.950;11.762;2023-02-28T19:17:31;8.30;;;7.18;;
17504;SDS011;8870;50.950;11.762;2023-02-28T19:23:05;8.88;;;7.57;;
17504;SDS011;8870;50.950;11.762;2023-02-28T19:28:27;8.85;;;7.65;;
17504;SDS011;8870;50.950;11.762;2023-02-28T19:33:59;8.98;;;8.05;;
17504;SDS011;8870;50.950;11.762;2023-02-28T19:39:19;9.07;;;8.00;;
17504;SDS011;8870;50.950;11.762;2023-02-28T19:45:02;10.75;;;8.20;;
17504;SDS011;8870;50.950;11.762;2023-02-28T19:50:24;10.48;;;8.25;;
17504;SDS011;8870;50.950;11.762;2023-02-28T19:56:00;8.48;;;7.65;;
17504;SDS011;8870;50.950;11.762;2023-02-28T20:01:20;9.60;;;8.52;;
17504;SDS011;8870;50.950;11.762;2023-02-28T20:06:51;9.38;;;8.30;;
17504;SDS011;8870;50.950;11.762;2023-02-28T20:12:11;10.88;;;8.43;;
17504;SDS011;8870;50.950;11.762;2023-02-28T20:17:44;9.25;;;8.15;;
17504;SDS011;8870;50.950;11.762;2023-02-28T20:23:02;9.05;;;8.15;;
17504;SDS011;8870;50.950;11.762;2023-02-28T20:28:36;9.40;;;8.23;;
17504;SDS011;8870;50.950;11.762;2023-02-28T20:33:55;12.98;;;8.82;;
17504;SDS011;8870;50.950;11.762;2023-02-28T20:39:27;9.35;;;8.35;;
17504;SDS011;8870;50.950;11.762;2023-02-28T20:44:49;9.25;;;8.20;;
17504;SDS011;8870;50.950;11.762;2023-02-28T20:50:20;10.13;;;8.30;;
17504;SDS011;8870;50.950;11.762;2023-02-28T20:55:38;9.43;;;8.23;;
17504;SDS011;8870;50.950;11.762;2023-02-28T21:01:13;9.27;;;8.27;;
17504;SDS011;8870;50.950;11.762;2023-02-28T21:06:33;10.13;;;8.63;;
17504;SDS011;8870;50.950;11.762;2023-02-28T21:12:08;10.73;;;9.52;;
17504;SDS011;8870;50.950;11.762;2023-02-28T21:17:29;11.05;;;9.93;;
17504;SDS011;8870;50.950;11.762;2023-02-28T21:23:01;9.93;;;8.93;;
17504;SDS011;8870;50.950;11.762;2023-02-28T21:28:20;11.85;;;9.13;;
17504;SDS011;8870;50.950;11.762;2023-02-28T21:33:54;11.00;;;9.68;;
17504;SDS011;8870;50.950;11.762;2023-02-28T21:39:15;11.25;;;9.63;;
17504;SDS011;8870;50.950;11.762;2023-02-28T21:44:50;10.57;;;9.48;;
17504;SDS011;8870;50.950;11.762;2023-02-28T21:50:14;11.00;;;9.90;;
17504;SDS011;8870;50.950;11.762;2023-02-28T21:55:45;11.23;;;10.02;;
17504;SDS011;8870;50.950;11.762;2023-02-28T22:01:03;13.45;;;10.55;;
17504;SDS011;8870;50.950;11.762;2023-02-28T22:06:39;12.82;;;10.40;;
17504;SDS011;8870;50.950;11.762;2023-02-28T22:11:58;11.20;;;10.05;;
17504;SDS011;8870;50.950;11.762;2023-02-28T22:17:29;12.07;;;10.18;;
17504;SDS011;8870;50.950;11.762;2023-02-28T22:22:50;11.93;;;10.30;;
17504;SDS011;8870;50.950;11.762;2023-02-28T22:28:21;13.18;;;10.48;;
17504;SDS011;8870;50.950;11.762;2023-02-28T22:33:41;12.07;;;10.18;;
17504;SDS011;8870;50.950;11.762;2023-02-28T22:39:15;13.05;;;10.60;;
17504;SDS011;8870;50.950;11.762;2023-02-28T22:44:34;11.65;;;10.50;;
17504;SDS011;8870;50.950;11.762;2023-02-28T22:50:08;11.90;;;10.45;;
17504;SDS011;8870;50.950;11.762;2023-02-28T22:55:29;12.27;;;10.43;;
17504;SDS011;8870;50.950;11.762;2023-02-28T23:01:04;11.70;;;10.50;;
17504;SDS011;8870;50.950;11.762;2023-02-28T23:06:24;12.40;;;10.30;;
17504;SDS011;8870;50.950;11.762;2023-02-28T23:12:00;10.80;;;9.55;;
17504;SDS011;8870;50.950;11.762;2023-02-28T23:17:19;12.55;;;10.75;;
17504;SDS011;8870;50.950;11.762;2023-02-28T23:22:51;12.25;;;10.30;;
17504;SDS011;8870;50.950;11.762;2023-02-28T23:28:11;11.65;;;10.18;;
17504;SDS011;8870;50.950;11.762;2023-02-28T23:33:44;11.38;;;10.27;;
17504;SDS011;8870;50.950;11.762;2023-02-28T23:39:02;11.30;;;10.15;;
17504;SDS011;8870;50.950;11.762;2023-02-28T23:44:35;12.60;;;10.82;;
17504;SDS011;8870;50.950;11.762;2023-02-28T23:50:01;12.57;;;10.45;;
17504;SDS011;8870;50.950;11.762;2023-02-28T23:55:32;11.95;;;10.65;;
